Pink Coral — 9HPY9 — position and weather

sailwx.info

Track history (hours):
 
Tides and Currents Weather Stations Pressure Air Temp Water Temp Dewpoint Dewpoint Depression Visibility Wind Speed Wind Dir Waves Ship Positions

Pink Coral

Last reported at 2014-Nov-15 03:29 UTC. Time now 2014-Dec-20 05:54 UTC.
Position N 36°09' E 015°11'.
Warning: this ship's position is 35 days out of date.

Length 183 m; draft 9.6 m.

Type: Ship (hazmat cat A). MMSI: 249344000.

Date/timePositionNaut miles runAvg speedWind from/ knotsBaromVisibWave heightAir tempDewpointWater temp
2014-Nov-15 03:29N 36°09' E 015°11'  
2014-Nov-12 07:07N 35°40' E 014°49'7 9.8
2014-Nov-12 06:26N 35°35' E 014°55'19 2.0
2014-Nov-11 21:09N 35°53' E 015°02'3 0.3
2014-Nov-11 10:05N 35°50' E 015°03'15 0.5
2014-Nov-10 05:26N 35°60' E 014°50'43 1.8
2014-Nov-09 05:33N 36°25' E 014°06'1514.7
2014-Nov-09 04:33N 36°34' E 013°51'1514.7
2014-Nov-09 03:33N 36°42' E 013°37'23314.3
2014-Nov-08 11:18N 38°25' E 009°13'2514.5
2014-Nov-08 09:33N 38°32' E 008°41'2114.5
2014-Nov-08 08:08N 38°38' E 008°16'2513.4
2014-Nov-08 06:15N 38°54' E 007°51'1014.6
2014-Nov-08 05:33N 39°03' E 007°45'18214.8
2014-Nov-07 17:14N 41°46' E 005°58'1014.5
2014-Nov-07 16:33N 41°55' E 005°53'1514.8
2014-Nov-07 15:32N 42°08' E 005°44'1414.7
2014-Nov-07 14:34N 42°21' E 005°35'1515.0
2014-Nov-07 13:33N 42°34' E 005°26'1514.8
2014-Nov-07 12:34N 42°48' E 005°17'1514.6
2014-Nov-07 11:32N 43°01' E 005°07'1414.5
2014-Nov-07 10:33N 43°14' E 004°60'10 9.2
2014-Nov-07 09:29N 43°24' E 004°60'0 0.0
2014-Nov-07 08:32N 43°24' E 004°60'0 0.0
2014-Nov-07 07:32N 43°24' E 004°60'0 0.0
2014-Nov-07 06:32N 43°24' E 004°60'0 0.0
2014-Nov-07 05:32N 43°24' E 004°60'0 0.0
2014-Nov-07 04:32N 43°24' E 004°60'0 0.0
2014-Nov-07 03:32N 43°24' E 004°60'0 0.0
2014-Nov-07 02:32N 43°24' E 004°60'0 0.0
2014-Nov-07 01:32N 43°24' E 004°60'0 0.0
2014-Nov-07 00:32N 43°24' E 004°60'0 0.0
2014-Nov-06 23:32N 43°24' E 004°60'0 0.0
2014-Nov-06 22:32N 43°24' E 004°60'0 0.0
2014-Nov-06 21:32N 43°24' E 004°60'0 0.0
2014-Nov-06 20:32N 43°24' E 004°60'0 0.0
2014-Nov-06 19:32N 43°24' E 004°60'0 0.0
2014-Nov-06 18:32N 43°24' E 004°60'0 0.0
2014-Nov-06 17:32N 43°24' E 004°60'0 0.0
2014-Nov-06 16:32N 43°24' E 004°60'0 0.0
2014-Nov-06 15:32N 43°24' E 004°60'0 0.0
2014-Nov-06 14:32N 43°24' E 004°60'0 0.0
2014-Nov-06 13:32N 43°24' E 004°60'0 0.0
2014-Nov-06 12:32N 43°24' E 004°60'0 0.0
2014-Nov-06 11:32N 43°24' E 004°60'0 0.0
2014-Nov-06 10:32N 43°24' E 004°60'0 0.0
2014-Nov-06 09:32N 43°24' E 004°60'0 0.0
2014-Nov-06 08:32N 43°24' E 004°60'0 0.0
2014-Nov-06 07:32N 43°24' E 004°60'0 0.0
2014-Nov-06 06:32N 43°24' E 004°60'0 0.0
2014-Nov-06 05:32N 43°24' E 004°60'0 0.0
2014-Nov-06 04:32N 43°24' E 004°60'0 0.0
2014-Nov-06 03:32N 43°24' E 004°60'0 0.0
2014-Nov-06 02:32N 43°24' E 004°60'0 0.0
2014-Nov-06 01:32N 43°24' E 004°60'0 0.0
2014-Nov-06 00:32N 43°24' E 004°60'0 0.0
2014-Nov-05 23:32N 43°24' E 004°60'0 0.0
2014-Nov-05 22:32N 43°24' E 004°60'0 0.0
2014-Nov-05 21:32N 43°24' E 004°60'0 0.0
2014-Nov-05 20:32N 43°24' E 004°60'0 0.0
2014-Nov-05 19:32N 43°24' E 004°60'0 0.0
2014-Nov-05 18:33N 43°24' E 004°60'2 2.0
2014-Nov-05 17:33N 43°22' E 004°59'0 0.1
2014-Nov-05 16:32N 43°22' E 004°59'1 1.4
2014-Nov-05 15:34N 43°21' E 004°59'9 8.8
2014-Nov-05 14:34N 43°12' E 005°03'2310.5
2014-Nov-05 12:23N 42°51' E 005°16'910.5
2014-Nov-05 11:32N 42°43' E 005°21'1010.2
2014-Nov-05 10:33N 42°34' E 005°27'1110.2
2014-Nov-05 09:26N 42°24' E 005°34'  
Track history (hours):
 
Tides and Currents Weather Stations Pressure Air Temp Water Temp Dewpoint Dewpoint Depression Visibility Wind Speed Wind Dir Waves Ship Positions

Pink Coral

Last reported at 2014-Nov-15 03:29 UTC. Time now 2014-Dec-20 05:54 UTC.
Position N 36°09' E 015°11'.
Warning: this ship's position is 35 days out of date.

Length 183 m; draft 9.6 m.

Type: Ship (hazmat cat A). MMSI: 249344000.

Date/timePositionNaut miles runAvg speedWind from/ knotsBaromVisibWave heightAir tempDewpointWater temp
2014-Nov-15 03:29N 36°09' E 015°11'  
2014-Nov-12 07:07N 35°40' E 014°49'7 9.8
2014-Nov-12 06:26N 35°35' E 014°55'19 2.0
2014-Nov-11 21:09N 35°53' E 015°02'3 0.3
2014-Nov-11 10:05N 35°50' E 015°03'15 0.5
2014-Nov-10 05:26N 35°60' E 014°50'43 1.8
2014-Nov-09 05:33N 36°25' E 014°06'1514.7
2014-Nov-09 04:33N 36°34' E 013°51'1514.7
2014-Nov-09 03:33N 36°42' E 013°37'23314.3
2014-Nov-08 11:18N 38°25' E 009°13'2514.5
2014-Nov-08 09:33N 38°32' E 008°41'2114.5
2014-Nov-08 08:08N 38°38' E 008°16'2513.4
2014-Nov-08 06:15N 38°54' E 007°51'1014.6
2014-Nov-08 05:33N 39°03' E 007°45'18214.8
2014-Nov-07 17:14N 41°46' E 005°58'1014.5
2014-Nov-07 16:33N 41°55' E 005°53'1514.8
2014-Nov-07 15:32N 42°08' E 005°44'1414.7
2014-Nov-07 14:34N 42°21' E 005°35'1515.0
2014-Nov-07 13:33N 42°34' E 005°26'1514.8
2014-Nov-07 12:34N 42°48' E 005°17'1514.6
2014-Nov-07 11:32N 43°01' E 005°07'1414.5
2014-Nov-07 10:33N 43°14' E 004°60'10 9.2
2014-Nov-07 09:29N 43°24' E 004°60'0 0.0
2014-Nov-07 08:32N 43°24' E 004°60'0 0.0
2014-Nov-07 07:32N 43°24' E 004°60'0 0.0
2014-Nov-07 06:32N 43°24' E 004°60'0 0.0
2014-Nov-07 05:32N 43°24' E 004°60'0 0.0
2014-Nov-07 04:32N 43°24' E 004°60'0 0.0
2014-Nov-07 03:32N 43°24' E 004°60'0 0.0
2014-Nov-07 02:32N 43°24' E 004°60'0 0.0
2014-Nov-07 01:32N 43°24' E 004°60'0 0.0
2014-Nov-07 00:32N 43°24' E 004°60'0 0.0
2014-Nov-06 23:32N 43°24' E 004°60'0 0.0
2014-Nov-06 22:32N 43°24' E 004°60'0 0.0
2014-Nov-06 21:32N 43°24' E 004°60'0 0.0
2014-Nov-06 20:32N 43°24' E 004°60'0 0.0
2014-Nov-06 19:32N 43°24' E 004°60'0 0.0
2014-Nov-06 18:32N 43°24' E 004°60'0 0.0
2014-Nov-06 17:32N 43°24' E 004°60'0 0.0
2014-Nov-06 16:32N 43°24' E 004°60'0 0.0
2014-Nov-06 15:32N 43°24' E 004°60'0 0.0
2014-Nov-06 14:32N 43°24' E 004°60'0 0.0
2014-Nov-06 13:32N 43°24' E 004°60'0 0.0
2014-Nov-06 12:32N 43°24' E 004°60'0 0.0
2014-Nov-06 11:32N 43°24' E 004°60'0 0.0
2014-Nov-06 10:32N 43°24' E 004°60'0 0.0
2014-Nov-06 09:32N 43°24' E 004°60'0 0.0
2014-Nov-06 08:32N 43°24' E 004°60'0 0.0
2014-Nov-06 07:32N 43°24' E 004°60'0 0.0
2014-Nov-06 06:32N 43°24' E 004°60'0 0.0
2014-Nov-06 05:32N 43°24' E 004°60'0 0.0
2014-Nov-06 04:32N 43°24' E 004°60'0 0.0
2014-Nov-06 03:32N 43°24' E 004°60'0 0.0
2014-Nov-06 02:32N 43°24' E 004°60'0 0.0
2014-Nov-06 01:32N 43°24' E 004°60'0 0.0
2014-Nov-06 00:32N 43°24' E 004°60'0 0.0
2014-Nov-05 23:32N 43°24' E 004°60'0 0.0
2014-Nov-05 22:32N 43°24' E 004°60'0 0.0
2014-Nov-05 21:32N 43°24' E 004°60'0 0.0
2014-Nov-05 20:32N 43°24' E 004°60'0 0.0
2014-Nov-05 19:32N 43°24' E 004°60'0 0.0
2014-Nov-05 18:33N 43°24' E 004°60'2 2.0
2014-Nov-05 17:33N 43°22' E 004°59'0 0.1
2014-Nov-05 16:32N 43°22' E 004°59'1 1.4
2014-Nov-05 15:34N 43°21' E 004°59'9 8.8
2014-Nov-05 14:34N 43°12' E 005°03'2310.5
2014-Nov-05 12:23N 42°51' E 005°16'910.5
2014-Nov-05 11:32N 42°43' E 005°21'1010.2
2014-Nov-05 10:33N 42°34' E 005°27'1110.2
2014-Nov-05 09:26N 42°24' E 005°34'  

Dump ship's entire track history